Terminal Aerodrome Forecast
Issued by NWS

Home | Current Version | Previous Version | Text Only | Print | Product List | Glossary Off
Versions: 1 2 3 4 5 6 7 8 9 10 11 12 13 14 15 16 17 18 19 20 21 22 23 24 25 26 27 28 29

000
FTUS43 KBIS 250539
TAFDIK
TAF
KDIK 250539Z 2506/2606 16004KT P6SM OVC080
     FM251100 24006KT P6SM -SN BKN035 OVC080
     FM251400 28007KT P6SM -SN BKN020
     FM252100 29011G19KT P6SM BKN040
     FM252300 27010KT P6SM VCSH BKN050=

USA.gov is the U.S. government's official web portal to all federal, state and local government web resources and services.